Time;durP1;ratioP1;P1;durP2;ratioP2;P2;SDS_P1;SDS_P2;PMS_P1;PMS_P2;Temp;Humidity;BMP_temperature;BMP_pressure;BME280_temperature;BME280_humidity;BME280_pressure;Samples;Min_cycle;Max_cycle;Signal;HPM_P1;HPM_P2
2023/07/09 00:04:03;;;;;;;5.88;3.33;;;;;;;21.24;45.09;101600.41;15434741;28;20134;-50
2023/07/09 00:11:38;;;;;;;10.15;3.42;;;;;;;21.27;45.23;101624.47;15442340;28;20082;-49
2023/07/09 00:19:15;;;;;;;6.97;3.50;;;;;;;21.03;46.38;101640.38;15439550;28;20531;-54
2023/07/09 00:26:50;;;;;;;6.45;3.55;;;;;;;20.86;46.66;101632.28;15461680;28;20043;-52
2023/07/09 00:34:24;;;;;;;5.03;3.45;;;;;;;20.77;47.44;101624.81;15445216;28;20043;-54
2023/07/09 00:41:59;;;;;;;7.13;3.72;;;;;;;20.65;47.40;101616.75;15441462;28;20038;-52
2023/07/09 00:49:34;;;;;;;6.20;3.97;;;;;;;20.67;47.01;101614.63;15432522;28;20055;-50
2023/07/09 00:57:17;;;;;;;7.68;3.47;;;;;;;20.48;47.42;101602.41;15441966;28;20555;-54
2023/07/09 01:04:50;;;;;;;9.97;4.30;;;;;;;20.42;47.95;101609.66;15422665;28;20217;-50
2023/07/09 01:12:34;;;;;;;6.80;3.95;;;;;;;20.32;48.81;101607.63;15445175;28;20305;-49
2023/07/09 01:20:09;;;;;;;6.72;3.95;;;;;;;20.28;48.33;101608.38;15443602;28;20042;-52
2023/07/09 01:27:47;;;;;;;8.52;3.97;;;;;;;20.07;49.43;101607.31;15449437;28;20047;-50
2023/07/09 01:35:21;;;;;;;7.10;4.13;;;;;;;19.93;49.94;101606.03;15439474;28;20043;-51
2023/07/09 01:42:57;;;;;;;6.28;3.80;;;;;;;19.83;49.48;101601.28;15443352;28;20038;-50
2023/07/09 01:50:31;;;;;;;7.32;4.20;;;;;;;19.67;50.50;101613.00;15429006;28;20105;-51
2023/07/09 01:58:08;;;;;;;5.43;4.10;;;;;;;19.65;50.84;101615.16;15439730;28;20058;-51
2023/07/09 02:05:41;;;;;;;8.20;4.32;;;;;;;19.42;51.72;101622.41;15427412;28;20054;-53
2023/07/09 02:13:15;;;;;;;7.63;3.80;;;;;;;19.28;51.65;101618.34;15433649;28;20500;-54
2023/07/09 02:20:48;;;;;;;6.13;4.05;;;;;;;19.19;52.34;101619.84;15429371;28;20093;-51
2023/07/09 02:28:22;;;;;;;;;;;;;;;19.00;52.93;101625.50;15432661;28;20074;-50
2023/07/09 02:35:55;;;;;;;6.90;4.65;;;;;;;18.93;53.06;101618.53;15439744;28;19928;-51
2023/07/09 02:43:29;;;;;;;9.30;4.60;;;;;;;18.84;53.55;101623.59;15445869;28;20042;-54
2023/07/09 02:51:02;;;;;;;7.18;4.60;;;;;;;18.69;54.60;101628.72;15431660;28;20045;-52
2023/07/09 02:58:36;;;;;;;7.78;4.80;;;;;;;18.72;54.42;101625.53;15427498;28;20043;-52
2023/07/09 03:06:11;;;;;;;10.43;5.00;;;;;;;18.51;55.38;101621.53;15423588;28;20077;-50
2023/07/09 03:13:46;;;;;;;7.90;5.10;;;;;;;18.43;55.72;101622.75;15432425;28;20065;-53
2023/07/09 03:21:19;;;;;;;10.27;5.20;;;;;;;18.43;56.02;101621.94;15427952;28;20043;-54
2023/07/09 03:28:54;;;;;;;;;;;;;;;18.34;56.48;101616.03;15443902;28;20081;-55
2023/07/09 03:36:26;;;;;;;9.68;4.63;;;;;;;18.43;56.22;101624.66;15433678;28;19922;-50
2023/07/09 03:44:00;;;;;;;8.83;4.73;;;;;;;18.47;56.28;101634.81;15437694;28;20043;-51
2023/07/09 03:51:33;;;;;;;6.93;4.70;;;;;;;18.60;55.48;101639.13;15434140;28;20051;-50
2023/07/09 03:59:07;;;;;;;7.68;4.47;;;;;;;18.86;55.02;101640.47;15431106;28;20110;-54
2023/07/09 04:06:41;;;;;;;7.15;4.65;;;;;;;19.10;54.84;101646.63;15399710;28;20483;-54
2023/07/09 04:14:23;;;;;;;6.80;4.88;;;;;;;19.15;55.54;101651.34;15430423;28;20085;-50
2023/07/09 04:21:56;;;;;;;9.07;4.75;;;;;;;19.16;55.44;101656.53;15427707;28;20471;-51
2023/07/09 04:29:33;;;;;;;7.85;4.80;;;;;;;18.78;55.27;101654.47;15434937;28;20058;-51
2023/07/09 04:37:07;;;;;;;7.57;4.88;;;;;;;18.95;54.82;101651.78;15433302;28;20089;-52
2023/07/09 04:44:42;;;;;;;8.88;4.70;;;;;;;19.30;54.06;101648.88;15437488;28;20042;-55
2023/07/09 04:52:15;;;;;;;8.23;4.65;;;;;;;19.59;53.22;101658.63;15438038;28;20476;-55
2023/07/09 04:59:49;;;;;;;;;;;;;;;19.96;52.19;101660.00;15444651;28;20137;-52
2023/07/09 05:07:22;;;;;;;7.18;4.70;;;;;;;20.28;52.37;101658.28;15389727;23;19937;-50
2023/07/09 05:14:57;;;;;;;6.00;4.32;;;;;;;20.94;52.13;101660.19;15371135;28;20042;-46
2023/07/09 05:22:30;;;;;;;6.65;4.22;;;;;;;21.63;49.63;101666.56;15369022;28;20070;-45
2023/07/09 05:30:05;;;;;;;;;;;;;;;21.58;48.84;101665.72;15370734;28;20052;-46
2023/07/09 05:37:38;;;;;;;5.78;4.32;;;;;;;22.24;47.27;101673.56;15369701;28;19923;-54
2023/07/09 05:45:14;;;;;;;8.25;4.28;;;;;;;22.61;46.33;101663.31;15368561;28;20098;-47
2023/07/09 05:52:47;;;;;;;7.65;4.43;;;;;;;22.66;47.42;101662.50;15368850;28;20043;-46
2023/07/09 06:00:21;;;;;;;4.90;3.75;;;;;;;22.79;45.52;101667.50;15367495;28;20078;-48
2023/07/09 06:07:54;;;;;;;6.13;4.25;;;;;;;23.31;44.71;101674.72;15369613;28;20043;-49
2023/07/09 06:15:29;;;;;;;7.53;4.25;;;;;;;23.41;43.37;101679.41;15367338;29;20106;-47
2023/07/09 06:23:02;;;;;;;6.38;4.20;;;;;;;23.66;45.26;101676.69;15366260;29;20500;-50
2023/07/09 06:30:36;;;;;;;5.18;3.80;;;;;;;24.77;41.79;101679.41;15367965;28;20058;-45
2023/07/09 06:38:09;;;;;;;5.50;3.90;;;;;;;24.92;40.87;101679.31;15365211;29;20043;-46
2023/07/09 06:45:55;;;;;;;7.18;4.00;;;;;;;25.14;40.99;101695.44;15366135;28;20386;-48
2023/07/09 06:53:29;;;;;;;7.32;3.90;;;;;;;25.25;43.04;101698.09;15365938;28;20499;-46
2023/07/09 07:01:05;;;;;;;5.38;4.30;;;;;;;25.83;40.85;101692.69;15365987;28;20116;-47
2023/07/09 07:08:38;;;;;;;6.97;3.92;;;;;;;26.35;41.61;101689.13;15365722;28;20047;-50
2023/07/09 07:16:14;;;;;;;5.85;4.22;;;;;;;26.59;40.66;101678.13;15365960;28;20039;-47
2023/07/09 07:23:47;;;;;;;7.65;4.28;;;;;;;26.88;39.51;101682.69;15377174;28;20047;-45
2023/07/09 07:31:21;;;;;;;11.80;4.50;;;;;;;27.21;38.45;101678.88;15360492;28;20047;-45
2023/07/09 07:38:54;;;;;;;6.82;4.28;;;;;;;27.92;38.81;101692.63;15362194;28;20047;-45
2023/07/09 07:46:28;;;;;;;6.43;3.85;;;;;;;28.96;36.28;101685.56;15361796;28;20051;-49
2023/07/09 07:54:01;;;;;;;5.35;3.95;;;;;;;29.10;37.26;101685.50;15363033;28;20047;-48
2023/07/09 08:01:37;;;;;;;6.63;4.20;;;;;;;28.55;36.44;101683.66;15361648;28;20075;-47
2023/07/09 08:09:13;;;;;;;7.90;4.03;;;;;;;29.71;33.70;101679.31;15360789;28;20063;-48
2023/07/09 08:16:48;;;;;;;5.13;3.90;;;;;;;29.37;36.00;101677.09;15359853;29;20445;-48
2023/07/09 08:24:20;;;;;;;6.57;4.13;;;;;;;29.59;33.62;101676.28;15365928;28;20063;-48
2023/07/09 08:31:55;;;;;;;6.22;4.07;;;;;;;30.22;33.07;101675.16;15371126;28;20350;-48
2023/07/09 08:39:28;;;;;;;9.25;3.90;;;;;;;30.43;31.75;101669.03;15371131;28;20074;-49
2023/07/09 08:47:08;;;;;;;6.28;3.90;;;;;;;30.73;32.29;101661.75;15371611;28;20043;-51
2023/07/09 08:54:43;;;;;;;4.30;3.45;;;;;;;31.06;30.62;101662.13;15373018;28;20048;-53
2023/07/09 09:02:29;;;;;;;5.30;3.72;;;;;;;31.00;29.18;101650.34;15372131;28;20491;-52
2023/07/09 09:10:04;;;;;;;6.65;3.88;;;;;;;31.48;30.72;101654.91;15372411;28;20138;-55
2023/07/09 09:17:40;;;;;;;7.40;3.30;;;;;;;32.05;30.65;101642.66;15371201;28;20369;-52
2023/07/09 09:25:25;;;;;;;4.85;3.08;;;;;;;32.47;27.48;101648.31;15369576;28;20051;-49
2023/07/09 09:33:01;;;;;;;3.72;3.28;;;;;;;32.94;28.76;101656.50;15368959;28;20055;-48
2023/07/09 09:40:36;;;;;;;4.45;3.20;;;;;;;32.93;28.20;101664.03;15369566;28;20043;-48
2023/07/09 09:48:15;;;;;;;7.57;3.30;;;;;;;32.78;24.14;101661.00;15368176;28;20044;-57
2023/07/09 09:55:52;;;;;;;3.57;2.93;;;;;;;33.04;27.00;101652.50;15368712;28;20043;-51
2023/07/09 10:03:36;;;;;;;7.97;3.40;;;;;;;33.46;24.36;101654.06;15364056;28;20039;-51
2023/07/09 10:11:18;;;;;;;4.22;3.10;;;;;;;34.06;24.88;101648.94;15357375;28;20062;-54
2023/07/09 10:18:57;;;;;;;6.07;3.38;;;;;;;34.35;23.39;101644.28;15365328;28;20069;-47
2023/07/09 10:26:37;;;;;;;4.18;3.30;;;;;;;34.37;22.92;101642.78;15358544;28;20044;-55
2023/07/09 10:34:22;;;;;;;4.45;3.03;;;;;;;35.21;21.53;101636.53;15362742;29;20062;-50
2023/07/09 10:42:00;;;;;;;5.85;3.20;;;;;;;34.80;21.73;101637.72;15362582;28;20039;-52
2023/07/09 10:49:38;;;;;;;3.58;2.85;;;;;;;35.62;25.76;101634.44;15356776;28;20086;-54
2023/07/09 10:57:19;;;;;;;4.33;3.13;;;;;;;34.87;21.63;101635.13;15356595;29;20043;-48
2023/07/09 11:04:55;;;;;;;;;;;;;;;35.16;21.62;101625.59;15358505;29;20110;-47
2023/07/09 11:12:33;;;;;;;5.32;3.13;;;;;;;36.00;22.46;101625.44;15358179;28;20066;-47
2023/07/09 11:20:19;;;;;;;5.65;3.47;;;;;;;35.94;21.23;101622.06;15358962;29;20046;-48
2023/07/09 11:27:55;;;;;;;5.88;3.10;;;;;;;36.72;21.99;101611.91;15339040;29;20047;-48
2023/07/09 11:35:30;;;;;;;6.32;3.67;;;;;;;36.69;22.14;101600.63;15361495;28;20054;-47
2023/07/09 11:43:06;;;;;;;6.50;3.25;;;;;;;35.98;21.44;101588.66;15361272;28;20051;-47
2023/07/09 11:50:45;;;;;;;5.20;3.28;;;;;;;36.49;19.71;101595.03;15362805;28;20155;-51
2023/07/09 11:58:19;;;;;;;4.40;3.33;;;;;;;36.72;21.29;101597.91;15364839;28;20050;-50
2023/07/09 12:05:58;;;;;;;5.10;3.40;;;;;;;37.08;23.13;101578.25;15372137;28;20070;-48
2023/07/09 12:13:37;;;;;;;3.77;3.40;;;;;;;37.17;19.51;101573.22;15372528;28;20046;-50
2023/07/09 12:21:11;;;;;;;6.87;3.17;;;;;;;37.00;23.07;101566.13;15364622;29;20038;-49
2023/07/09 12:28:50;;;;;;;4.20;3.10;;;;;;;36.43;20.11;101565.75;15366012;28;20310;-49
2023/07/09 12:36:25;;;;;;;5.03;3.40;;;;;;;36.95;19.10;101547.63;15371304;28;20071;-49
2023/07/09 12:43:58;;;;;;;9.15;3.53;;;;;;;37.21;22.39;101543.28;15370579;28;20047;-47
2023/07/09 12:51:35;;;;;;;4.50;3.45;;;;;;;37.15;19.15;101542.00;15370112;29;20489;-50
2023/07/09 12:59:18;;;;;;;5.90;3.38;;;;;;;36.84;20.15;101527.03;15368701;29;20533;-53
2023/07/09 13:06:57;;;;;;;6.60;3.60;;;;;;;37.05;21.19;101520.22;15369190;28;20069;-53
2023/07/09 13:14:32;;;;;;;6.20;3.53;;;;;;;35.07;21.15;101524.47;15368525;28;20389;-49
2023/07/09 13:22:08;;;;;;;6.35;3.60;;;;;;;35.65;21.60;101520.00;15369769;28;20141;-46
2023/07/09 13:29:42;;;;;;;6.47;3.90;;;;;;;34.94;23.37;101512.59;15367181;29;20051;-48
2023/07/09 13:37:17;;;;;;;5.45;3.85;;;;;;;34.94;21.63;101515.38;15370497;28;20044;-49
2023/07/09 13:44:50;;;;;;;43.63;35.63;;;;;;;34.25;21.20;101517.38;15368449;28;20247;-51
2023/07/09 13:52:25;;;;;;;5.05;4.15;;;;;;;35.29;20.64;101512.72;15368507;28;20050;-51
2023/07/09 13:59:58;;;;;;;5.40;4.05;;;;;;;34.89;23.65;101508.06;15369074;28;20138;-47
2023/07/09 14:07:35;;;;;;;4.10;3.70;;;;;;;34.11;21.77;101494.66;15367682;28;20104;-48
2023/07/09 14:15:17;;;;;;;6.30;3.70;;;;;;;34.54;23.06;101499.53;15367509;28;20050;-49
2023/07/09 14:22:51;;;;;;;6.35;3.50;;;;;;;34.39;22.37;101503.03;15367108;28;20044;-48
2023/07/09 14:30:26;;;;;;;4.75;3.60;;;;;;;34.11;23.25;101498.25;15366537;29;20143;-46
2023/07/09 14:38:00;;;;;;;7.70;4.10;;;;;;;34.10;22.71;101482.72;15366378;28;20066;-49
2023/07/09 14:45:34;;;;;;;5.88;3.70;;;;;;;33.79;22.18;101472.16;15347966;28;20043;-49
2023/07/09 14:53:13;;;;;;;7.80;3.78;;;;;;;33.96;25.80;101476.72;15365529;28;20114;-48
2023/07/09 15:00:48;;;;;;;5.70;3.60;;;;;;;34.11;23.67;101475.16;15364885;28;20588;-56
2023/07/09 15:08:25;;;;;;;5.25;4.00;;;;;;;33.71;24.30;101461.97;15363080;28;20043;-57
2023/07/09 15:15:58;;;;;;;5.63;3.90;;;;;;;33.84;23.72;101452.44;15364718;28;20051;-56
2023/07/09 15:23:35;;;;;;;9.45;4.32;;;;;;;33.10;22.77;101439.69;15363720;28;20047;-53
2023/07/09 15:31:11;;;;;;;6.72;3.85;;;;;;;33.44;22.58;101435.69;15363714;28;20055;-55
2023/07/09 15:38:45;;;;;;;5.88;4.13;;;;;;;33.46;23.31;101427.78;15364314;28;20047;-52
2023/07/09 15:46:20;;;;;;;6.28;3.95;;;;;;;33.34;23.55;101416.63;15362564;28;20185;-57
2023/07/09 15:53:55;;;;;;;8.05;3.88;;;;;;;32.95;24.62;101402.25;15362278;29;20051;-53
2023/07/09 16:01:28;;;;;;;5.32;3.83;;;;;;;32.92;24.03;101397.38;15362212;28;20179;-54
2023/07/09 16:09:05;;;;;;;6.93;4.18;;;;;;;32.99;25.08;101390.09;15362842;28;20065;-55
2023/07/09 16:16:38;;;;;;;6.30;3.72;;;;;;;32.63;24.61;101378.88;15361110;29;20505;-54
2023/07/09 16:24:19;;;;;;;6.88;4.22;;;;;;;32.16;24.98;101368.06;15362933;28;20153;-52
2023/07/09 16:31:54;;;;;;;6.43;4.40;;;;;;;31.80;25.73;101360.34;15362988;28;20044;-57
2023/07/09 16:39:32;;;;;;;8.63;4.18;;;;;;;32.13;26.50;101374.31;15362373;28;20365;-56
2023/07/09 16:47:15;;;;;;;14.82;4.47;;;;;;;31.78;26.79;101360.69;15367825;28;20531;-57
2023/07/09 16:54:49;;;;;;;9.05;4.20;;;;;;;31.64;26.87;101369.31;15373040;28;20404;-54
2023/07/09 17:02:26;;;;;;;11.98;8.65;;;;;;;31.54;28.05;101366.94;15371214;28;20110;-56
2023/07/09 17:10:02;;;;;;;21.73;15.93;;;;;;;31.35;27.62;101364.59;15369357;29;20106;-55
2023/07/09 17:17:35;;;;;;;5.82;4.85;;;;;;;31.48;27.62;101376.63;15371586;28;20079;-56
2023/07/09 17:25:34;;;;;;;10.30;4.50;;;;;;;31.88;28.31;101387.28;15370204;28;20050;-52
2023/07/09 17:33:08;;;;;;;6.63;4.18;;;;;;;31.40;29.34;101381.06;15369703;28;20065;-53
2023/07/09 17:40:43;;;;;;;7.03;4.32;;;;;;;31.33;28.60;101391.03;15370808;28;20126;-52
2023/07/09 17:48:20;;;;;;;16.05;7.03;;;;;;;30.89;30.32;101405.09;15369567;28;20130;-54
2023/07/09 17:55:54;;;;;;;28.15;21.48;;;;;;;31.23;29.60;101420.75;15366227;28;20564;-53
2023/07/09 18:03:31;;;;;;;8.27;4.85;;;;;;;31.15;29.33;101421.63;15368053;28;20164;-56
2023/07/09 18:11:05;;;;;;;7.75;4.70;;;;;;;31.00;32.92;101411.09;15365936;28;20195;-54
2023/07/09 18:18:38;;;;;;;7.55;4.40;;;;;;;30.18;31.49;101416.63;15365978;29;20049;-54
2023/07/09 18:26:14;;;;;;;9.18;4.13;;;;;;;29.94;31.00;101408.78;15365350;28;20408;-50
2023/07/09 18:33:47;;;;;;;8.07;4.68;;;;;;;30.04;30.79;101418.72;15367041;28;20051;-54
2023/07/09 18:41:26;;;;;;;6.68;4.47;;;;;;;29.34;32.25;101425.25;15364368;28;20476;-55
2023/07/09 18:48:58;;;;;;;9.20;4.70;;;;;;;29.10;33.15;101429.22;15366419;28;20067;-53
2023/07/09 18:56:33;;;;;;;5.78;4.22;;;;;;;29.12;32.45;101418.66;15365213;28;20552;-53
2023/07/09 19:04:19;;;;;;;9.07;4.45;;;;;;;28.29;33.62;101421.03;15364620;28;20059;-55
2023/07/09 19:11:53;;;;;;;6.32;4.28;;;;;;;28.51;35.96;101419.44;15362479;28;20053;-56
2023/07/09 19:19:28;;;;;;;7.00;4.40;;;;;;;28.07;33.88;101432.91;15364258;28;20051;-53
2023/07/09 19:27:02;;;;;;;21.35;17.10;;;;;;;28.31;34.54;101423.50;15363372;28;20057;-57
2023/07/09 19:34:43;;;;;;;8.23;5.03;;;;;;;27.82;34.55;101414.94;15364644;28;20062;-53
2023/07/09 19:42:19;;;;;;;8.60;4.80;;;;;;;27.69;35.60;101416.56;15363027;28;20475;-56
2023/07/09 19:49:55;;;;;;;7.55;4.50;;;;;;;27.25;35.27;101410.91;15361622;29;20075;-54
2023/07/09 19:57:29;;;;;;;8.90;4.30;;;;;;;27.50;36.68;101413.13;15364155;28;20096;-57
2023/07/09 20:05:04;;;;;;;7.88;4.50;;;;;;;26.70;35.00;101412.44;15360756;28;20513;-57
2023/07/09 20:12:39;;;;;;;8.60;4.70;;;;;;;26.59;35.27;101399.19;15361359;28;20073;-58
2023/07/09 20:20:12;;;;;;;9.18;4.63;;;;;;;26.88;35.53;101429.22;15367235;28;20543;-58
2023/07/09 20:27:47;;;;;;;8.65;4.90;;;;;;;26.86;35.99;101424.03;15373636;28;20047;-53
2023/07/09 20:35:21;;;;;;;8.25;5.10;;;;;;;26.74;36.01;101431.94;15374335;28;20139;-55
2023/07/09 20:42:56;;;;;;;10.35;4.80;;;;;;;26.26;35.70;101431.34;15372893;29;20074;-57
2023/07/09 20:50:29;;;;;;;10.18;4.85;;;;;;;26.08;36.47;101433.81;15356572;29;20106;-51
2023/07/09 20:58:04;;;;;;;8.82;4.38;;;;;;;26.56;37.98;101439.13;15371042;28;20039;-56
2023/07/09 21:05:36;;;;;;;7.93;4.90;;;;;;;26.03;36.47;101441.31;15372049;28;20055;-58
2023/07/09 21:13:13;;;;;;;9.60;4.85;;;;;;;26.22;38.25;101447.63;15364561;29;20055;-56
2023/07/09 21:20:47;;;;;;;7.35;5.25;;;;;;;26.18;37.62;101449.34;15371029;28;20765;-58
2023/07/09 21:28:21;;;;;;;8.45;4.90;;;;;;;26.08;38.09;101458.56;15371668;28;20479;-57
2023/07/09 21:35:55;;;;;;;12.48;5.47;;;;;;;25.67;37.44;101439.00;15368529;28;20039;-52
2023/07/09 21:43:29;;;;;;;6.45;4.95;;;;;;;25.81;39.27;101450.97;15369375;28;20698;-52
2023/07/09 21:51:02;;;;;;;27.67;17.17;;;;;;;25.62;38.96;101437.16;15366224;28;20047;-54
2023/07/09 21:58:36;;;;;;;7.57;5.63;;;;;;;25.45;39.04;101432.13;15367765;29;20051;-58
2023/07/09 22:06:10;;;;;;;10.02;5.40;;;;;;;25.27;37.37;101437.56;15367207;28;20049;-54
2023/07/09 22:13:45;;;;;;;8.80;5.50;;;;;;;25.50;37.86;101436.75;15367345;28;20082;-57
2023/07/09 22:21:18;;;;;;;8.13;5.50;;;;;;;25.22;38.48;101434.88;15364877;28;20090;-54
2023/07/09 22:28:52;;;;;;;6.20;5.07;;;;;;;25.09;38.89;101434.47;15364253;29;20102;-55
2023/07/09 22:36:25;;;;;;;10.98;5.60;;;;;;;25.29;38.09;101443.59;15366161;28;20078;-55
2023/07/09 22:43:59;;;;;;;9.13;5.53;;;;;;;25.25;37.58;101434.31;15364559;28;20477;-54
2023/07/09 22:51:35;;;;;;;8.10;5.30;;;;;;;25.14;39.95;101433.59;15363794;28;20062;-56
2023/07/09 22:59:09;;;;;;;6.20;5.13;;;;;;;24.99;39.88;101441.94;15362191;29;20377;-55
2023/07/09 23:06:42;;;;;;;9.73;5.20;;;;;;;25.14;39.53;101442.66;15364031;28;20449;-50
2023/07/09 23:14:22;;;;;;;8.40;5.60;;;;;;;24.80;40.29;101428.94;15368694;28;20112;-45
2023/07/09 23:21:56;;;;;;;8.40;5.53;;;;;;;24.75;39.68;101426.25;15366141;28;20055;-46
2023/07/09 23:29:30;;;;;;;12.63;5.75;;;;;;;24.76;40.83;101438.91;15363189;29;20063;-46
2023/07/09 23:37:03;;;;;;;7.85;5.60;;;;;;;24.52;41.92;101436.06;15361642;29;20082;-46
2023/07/09 23:44:37;;;;;;;7.95;5.43;;;;;;;24.46;41.48;101439.13;15362327;28;20157;-46
2023/07/09 23:52:11;;;;;;;9.30;5.28;;;;;;;24.42;41.02;101434.22;15361034;28;20126;-46
2023/07/09 23:59:49;;;;;;;9.43;5.57;;;;;;;24.24;41.31;101434.03;15374110;28;20069;-51
